Terminal Aerodrome Forecast
Issued by NWS Upton, NY

Home | Current Version | Previous Version | Text Only | Print | Product List | Glossary On
Versions: 1 2 3 4 5 6 7 8 9 10 11 12 13 14 15 16 17 18 19 20 21 22 23 24 25 26 27 28 29 30 31 32 33 34
889
FTUS41 KOKX 171936 AAA
TAFLGA
TAF AMD
KLGA 171936Z 1720/1818 31017G27KT P6SM FEW250
     FM172100 29014G24KT P6SM FEW250
     FM180000 29010KT P6SM FEW250
     FM180500 VRB05KT P6SM FEW250
     FM181400 20009KT P6SM BKN150
     FM181700 19012G20KT P6SM VCSH BKN130=

USA.gov is the U.S. government's official web portal to all federal, state and local government web resources and services.